createdAt,value
2023-01-08T00:04:21.035Z,4.30
2023-01-08T00:09:23.966Z,3.70
2023-01-08T00:14:26.719Z,3.60
2023-01-08T00:19:30.100Z,3.80
2023-01-08T00:24:36.466Z,3.88
2023-01-08T00:29:40.733Z,3.97
2023-01-08T00:34:43.220Z,3.70
2023-01-08T00:39:46.259Z,3.63
2023-01-08T00:44:49.066Z,3.88
2023-01-08T00:49:52.047Z,3.90
2023-01-08T00:54:54.739Z,3.92
2023-01-08T00:59:57.740Z,4.80
2023-01-08T01:05:00.380Z,4.25
2023-01-08T01:10:03.174Z,4.28
2023-01-08T01:15:11.111Z,4.47
2023-01-08T01:20:15.335Z,4.22
2023-01-08T01:25:18.116Z,3.85
2023-01-08T01:30:20.757Z,4.28
2023-01-08T01:35:23.472Z,4.80
2023-01-08T01:40:25.952Z,4.68
2023-01-08T01:45:28.679Z,4.32
2023-01-08T01:50:33.510Z,4.80
2023-01-08T01:55:38.428Z,4.68
2023-01-08T02:00:41.720Z,4.60
2023-01-08T02:06:07.756Z,4.65
2023-01-08T02:11:11.469Z,5.20
2023-01-08T02:16:16.277Z,5.05
2023-01-08T02:21:27.674Z,4.70
2023-01-08T02:26:32.167Z,4.97
2023-01-08T02:31:37.328Z,5.30
2023-01-08T02:36:42.086Z,5.30
2023-01-08T02:41:47.702Z,5.35
2023-01-08T02:46:52.699Z,5.65
2023-01-08T02:51:56.279Z,5.60
2023-01-08T02:57:07.406Z,5.55
2023-01-08T03:02:13.470Z,6.00
2023-01-08T03:07:16.153Z,5.63
2023-01-08T03:12:22.523Z,5.78
2023-01-08T03:17:29.921Z,5.55
2023-01-08T03:22:33.367Z,5.53
2023-01-08T03:27:40.176Z,6.07
2023-01-08T03:32:44.416Z,5.82
2023-01-08T03:37:49.689Z,12.23
2023-01-08T03:42:52.818Z,6.13
2023-01-08T03:47:56.115Z,7.38
2023-01-08T03:53:00.606Z,7.53
2023-01-08T03:58:03.670Z,6.40
2023-01-08T04:03:06.505Z,6.55
2023-01-08T04:08:09.167Z,6.72
2023-01-08T04:13:11.700Z,6.50
2023-01-08T04:18:14.601Z,6.22
2023-01-08T04:23:17.420Z,5.93
2023-01-08T04:28:20.416Z,5.93
2023-01-08T04:33:23.040Z,5.88
2023-01-08T04:38:25.836Z,6.15
2023-01-08T04:43:29.162Z,6.80
2023-01-08T04:48:31.975Z,6.30
2023-01-08T04:53:36.813Z,6.38
2023-01-08T04:58:39.915Z,5.68
2023-01-08T05:03:42.723Z,6.25
2023-01-08T05:08:45.505Z,5.88
2023-01-08T05:13:49.366Z,6.38
2023-01-08T05:18:52.168Z,6.45
2023-01-08T05:23:54.963Z,5.55
2023-01-08T05:28:58.224Z,6.32
2023-01-08T05:34:01.181Z,5.93
2023-01-08T05:39:04.110Z,5.75
2023-01-08T05:44:07.099Z,6.38
2023-01-08T05:49:10.025Z,5.97
2023-01-08T05:54:12.986Z,6.38
2023-01-08T05:59:15.758Z,5.78
2023-01-08T06:04:18.661Z,5.82
2023-01-08T06:09:21.539Z,5.85
2023-01-08T06:14:24.516Z,5.88
2023-01-08T06:19:27.237Z,5.50
2023-01-08T06:24:29.999Z,6.32
2023-01-08T06:29:32.770Z,6.35
2023-01-08T06:34:35.514Z,5.95
2023-01-08T06:39:38.360Z,5.55
2023-01-08T06:44:40.901Z,5.13
2023-01-08T06:49:43.627Z,5.80
2023-01-08T06:54:46.220Z,5.82
2023-01-08T06:59:49.074Z,5.88
2023-01-08T07:04:51.908Z,5.28
2023-01-08T07:09:54.600Z,6.18
2023-01-08T07:14:57.203Z,5.80
2023-01-08T07:19:59.971Z,5.57
2023-01-08T07:25:02.702Z,5.40
2023-01-08T07:30:05.849Z,5.35
2023-01-08T07:35:08.751Z,5.50
2023-01-08T07:40:12.224Z,5.30
2023-01-08T07:45:15.212Z,5.50
2023-01-08T07:50:17.890Z,5.65
2023-01-08T07:55:20.767Z,5.35
2023-01-08T08:00:23.492Z,5.68
2023-01-08T08:05:26.173Z,5.13
2023-01-08T08:10:28.866Z,4.90
2023-01-08T08:15:35.906Z,4.63
2023-01-08T08:20:41.623Z,5.60
2023-01-08T08:25:44.423Z,4.90
2023-01-08T08:30:47.270Z,5.03
2023-01-08T08:35:51.448Z,5.00
2023-01-08T08:40:54.207Z,5.00
2023-01-08T08:45:57.419Z,4.60
2023-01-08T08:51:00.392Z,5.07
2023-01-08T08:56:05.943Z,4.88
2023-01-08T09:01:09.020Z,4.85
2023-01-08T09:06:15.109Z,5.28
2023-01-08T09:11:17.880Z,4.63
2023-01-08T09:16:20.729Z,4.95
2023-01-08T09:21:23.511Z,4.47
2023-01-08T09:26:28.910Z,4.95
2023-01-08T09:31:32.076Z,4.95
2023-01-08T09:36:39.215Z,4.90
2023-01-08T09:41:44.029Z,4.80
2023-01-08T09:46:47.018Z,4.50
2023-01-08T09:51:49.886Z,4.95
2023-01-08T09:56:52.680Z,5.80
2023-01-08T10:01:55.460Z,4.80
2023-01-08T10:07:06.111Z,4.65
2023-01-08T10:12:11.600Z,4.70
2023-01-08T10:17:26.539Z,4.95
2023-01-08T10:22:32.272Z,4.40
2023-01-08T10:27:37.958Z,4.90
2023-01-08T10:32:46.768Z,4.60
2023-01-08T10:37:50.636Z,5.00
2023-01-08T10:42:53.398Z,5.32
2023-01-08T10:47:57.561Z,5.72
2023-01-08T10:53:01.269Z,7.47
2023-01-08T10:58:12.139Z,6.40
2023-01-08T11:03:24.637Z,5.22
2023-01-08T11:08:27.324Z,5.10
2023-01-08T11:13:30.375Z,5.22
2023-01-08T11:18:42.156Z,6.72
2023-01-08T11:23:45.100Z,5.83
2023-01-08T11:28:56.864Z,7.78
2023-01-08T11:34:06.283Z,4.90
2023-01-08T11:39:09.416Z,7.10
2023-01-08T11:44:12.111Z,5.68
2023-01-08T11:49:44.217Z,5.75
2023-01-08T11:54:47.058Z,5.82
2023-01-08T12:00:05.201Z,5.60
2023-01-08T12:05:08.245Z,6.72
2023-01-08T12:10:20.388Z,7.63
2023-01-08T12:15:33.322Z,5.88
2023-01-08T12:20:58.850Z,6.72
2023-01-08T12:26:05.374Z,5.50
2023-01-08T12:31:08.081Z,5.53
2023-01-08T12:36:14.812Z,5.75
2023-01-08T12:41:18.937Z,5.70
2023-01-08T12:46:22.480Z,5.72
2023-01-08T12:51:24.946Z,5.28
2023-01-08T12:56:45.976Z,5.10
2023-01-08T13:02:13.932Z,5.13
2023-01-08T13:07:19.095Z,5.28
2023-01-08T13:12:26.901Z,5.43
2023-01-08T13:17:30.560Z,5.40
2023-01-08T13:22:37.181Z,5.03
2023-01-08T13:27:39.968Z,5.25
2023-01-08T13:32:44.370Z,5.15
2023-01-08T13:37:48.766Z,5.20
2023-01-08T13:42:52.088Z,5.90
2023-01-08T13:47:55.787Z,5.93
2023-01-08T13:53:02.918Z,6.35
2023-01-08T13:58:09.611Z,6.40
2023-01-08T14:03:25.385Z,6.30
2023-01-08T14:08:28.077Z,8.38
2023-01-08T14:13:32.061Z,6.53
2023-01-08T14:18:34.742Z,8.15
2023-01-08T14:23:43.219Z,7.97
2023-01-08T14:28:52.793Z,7.30
2023-01-08T14:33:56.435Z,8.55
2023-01-08T14:38:59.062Z,8.02
2023-01-08T14:44:02.819Z,7.70
2023-01-08T14:49:05.613Z,7.32
2023-01-08T14:54:09.610Z,8.85
2023-01-08T14:59:12.507Z,8.77
2023-01-08T15:04:18.985Z,7.90
2023-01-08T15:09:27.989Z,7.93
2023-01-08T15:14:31.417Z,7.28
2023-01-08T15:19:39.243Z,8.13
2023-01-08T15:24:43.628Z,8.38
2023-01-08T15:29:50.417Z,8.43
2023-01-08T15:34:53.218Z,8.77
2023-01-08T15:39:55.790Z,8.38
2023-01-08T15:44:58.474Z,8.15
2023-01-08T15:50:01.520Z,8.15
2023-01-08T15:55:05.069Z,8.50
2023-01-08T16:00:08.430Z,8.50
2023-01-08T16:05:11.381Z,8.75
2023-01-08T16:10:14.894Z,8.55
2023-01-08T16:15:18.037Z,8.23
2023-01-08T16:20:20.777Z,8.77
2023-01-08T16:25:24.396Z,10.60
2023-01-08T16:30:28.359Z,8.55
2023-01-08T16:35:31.078Z,8.68
2023-01-08T16:40:33.963Z,7.95
2023-01-08T16:45:45.038Z,7.57
2023-01-08T16:50:48.352Z,7.78
2023-01-08T16:55:51.183Z,7.95
2023-01-08T17:00:53.898Z,7.07
2023-01-08T17:06:00.555Z,8.82
2023-01-08T17:11:06.872Z,7.65
2023-01-08T17:16:10.891Z,7.40
2023-01-08T17:21:14.917Z,6.88
2023-01-08T17:26:20.392Z,7.05
2023-01-08T17:31:23.221Z,7.03
2023-01-08T17:36:26.813Z,7.32
2023-01-08T17:41:48.403Z,8.02
2023-01-08T17:46:51.217Z,7.55
2023-01-08T17:51:54.041Z,8.27
2023-01-08T17:56:56.845Z,7.88
2023-01-08T18:01:59.859Z,7.47
2023-01-08T18:07:03.375Z,8.30
2023-01-08T18:12:06.181Z,8.18
2023-01-08T18:17:08.764Z,9.35
2023-01-08T18:22:11.592Z,8.85
2023-01-08T18:27:14.325Z,9.98
2023-01-08T18:32:17.624Z,9.20
2023-01-08T18:37:20.507Z,9.57
2023-01-08T18:42:26.114Z,9.25
2023-01-08T18:47:29.245Z,8.60
2023-01-08T18:52:31.852Z,8.85
2023-01-08T18:57:34.640Z,7.88
2023-01-08T19:02:37.437Z,8.95
2023-01-08T19:07:41.709Z,9.45
2023-01-08T19:12:44.955Z,8.80
2023-01-08T19:17:47.547Z,9.73
2023-01-08T19:22:51.919Z,8.65
2023-01-08T19:27:54.613Z,13.65
2023-01-08T19:32:57.356Z,9.30
2023-01-08T19:38:00.177Z,8.75
2023-01-08T19:43:21.507Z,15.50
2023-01-08T19:48:24.140Z,10.48
2023-01-08T19:53:26.771Z,12.25
2023-01-08T19:58:29.670Z,10.27
2023-01-08T20:03:32.227Z,10.52
2023-01-08T20:08:35.040Z,9.90
2023-01-08T20:13:37.975Z,10.68
2023-01-08T20:18:40.719Z,10.18
2023-01-08T20:23:47.162Z,10.00
2023-01-08T20:28:50.846Z,9.85
2023-01-08T20:33:53.603Z,10.07
2023-01-08T20:38:58.081Z,9.98
2023-01-08T20:44:03.867Z,13.55
2023-01-08T20:49:07.986Z,10.32
2023-01-08T20:54:13.176Z,11.30
2023-01-08T20:59:16.619Z,10.63
2023-01-08T21:04:19.850Z,10.60
2023-01-08T21:09:22.838Z,10.65
2023-01-08T21:14:25.667Z,10.55
2023-01-08T21:19:28.342Z,10.20
2023-01-08T21:24:31.049Z,9.68
2023-01-08T21:29:33.771Z,9.82
2023-01-08T21:34:36.650Z,9.35
2023-01-08T21:39:39.542Z,9.60
2023-01-08T21:45:00.903Z,9.65
2023-01-08T21:50:03.928Z,9.88
2023-01-08T21:55:06.882Z,9.13
2023-01-08T22:00:10.323Z,9.18
2023-01-08T22:05:13.099Z,9.95
2023-01-08T22:10:15.988Z,9.13
2023-01-08T22:15:19.720Z,10.85
2023-01-08T22:20:22.527Z,9.35
2023-01-08T22:25:25.322Z,9.27
2023-01-08T22:30:28.055Z,9.32
2023-01-08T22:35:30.735Z,8.98
2023-01-08T22:40:33.614Z,9.30
2023-01-08T22:45:36.554Z,8.40
2023-01-08T22:50:39.640Z,8.82
2023-01-08T22:55:48.855Z,8.40
2023-01-08T23:00:51.690Z,9.23
2023-01-08T23:06:01.242Z,8.48
2023-01-08T23:11:04.133Z,8.60
2023-01-08T23:16:08.140Z,8.65
2023-01-08T23:21:18.293Z,9.25
2023-01-08T23:26:22.755Z,8.90
2023-01-08T23:31:26.678Z,8.38
2023-01-08T23:36:29.485Z,8.50
2023-01-08T23:41:34.534Z,9.18
2023-01-08T23:46:37.948Z,9.50
2023-01-08T23:51:42.597Z,9.70
2023-01-08T23:56:45.378Z,8.68
